createdAt,value
2017-10-24T00:00:57.964Z,7.90
2017-10-24T00:03:26.303Z,7.90
2017-10-24T00:05:54.605Z,7.90
2017-10-24T00:08:22.924Z,7.90
2017-10-24T00:10:51.216Z,8.00
2017-10-24T00:13:20.329Z,8.00
2017-10-24T00:15:48.633Z,8.00
2017-10-24T00:18:16.920Z,7.90
2017-10-24T00:20:45.221Z,7.90
2017-10-24T00:23:13.609Z,7.80
2017-10-24T00:25:42.710Z,7.90
2017-10-24T00:28:10.990Z,7.80
2017-10-24T00:30:40.060Z,8.00
2017-10-24T00:33:08.847Z,8.00
2017-10-24T00:35:37.123Z,7.90
2017-10-24T00:38:05.406Z,7.90
2017-10-24T00:40:33.741Z,7.80
2017-10-24T00:43:02.021Z,7.80
2017-10-24T00:45:30.263Z,7.70
2017-10-24T00:47:58.614Z,7.70
2017-10-24T00:50:27.010Z,7.60
2017-10-24T00:52:56.065Z,7.70
2017-10-24T00:55:24.559Z,7.70
2017-10-24T00:57:52.870Z,7.80
2017-10-24T01:00:21.151Z,7.70
2017-10-24T01:02:50.239Z,7.80
2017-10-24T01:05:18.550Z,7.80
2017-10-24T01:07:46.888Z,8.00
2017-10-24T01:10:15.203Z,7.90
2017-10-24T01:12:43.588Z,7.90
2017-10-24T01:15:11.955Z,7.80
2017-10-24T01:17:40.256Z,7.90
2017-10-24T01:20:09.075Z,7.80
2017-10-24T01:22:38.177Z,7.80
2017-10-24T01:25:06.516Z,7.80
2017-10-24T01:27:34.782Z,7.80
2017-10-24T01:30:03.055Z,7.80
2017-10-24T01:32:31.760Z,7.80
2017-10-24T01:35:00.076Z,7.70
2017-10-24T01:37:29.105Z,7.80
2017-10-24T01:39:57.530Z,7.70
2017-10-24T01:42:26.564Z,7.90
2017-10-24T01:44:54.996Z,7.90
2017-10-24T01:47:23.356Z,7.80
2017-10-24T01:49:51.630Z,7.70
2017-10-24T01:52:19.929Z,7.70
2017-10-24T01:54:48.246Z,7.70
2017-10-24T01:57:16.498Z,7.70
2017-10-24T01:59:45.528Z,7.70
2017-10-24T02:02:13.836Z,7.60
2017-10-24T02:04:42.132Z,7.60
2017-10-24T02:07:10.378Z,7.50
2017-10-24T02:09:38.680Z,7.40
2017-10-24T02:12:07.701Z,7.40
2017-10-24T02:14:36.917Z,7.50
2017-10-24T02:17:05.239Z,7.50
2017-10-24T02:19:33.540Z,7.40
2017-10-24T02:22:02.580Z,7.40
2017-10-24T02:24:30.858Z,7.40
2017-10-24T02:26:59.206Z,7.40
2017-10-24T02:29:27.491Z,7.50
2017-10-24T02:31:55.768Z,7.70
2017-10-24T02:34:24.111Z,7.50
2017-10-24T02:36:52.442Z,7.50
2017-10-24T02:39:20.729Z,7.60
2017-10-24T02:41:49.152Z,7.30
2017-10-24T02:44:18.216Z,7.40
2017-10-24T02:46:46.460Z,7.40
2017-10-24T02:49:14.828Z,7.40
2017-10-24T02:51:43.099Z,7.30
2017-10-24T02:54:11.377Z,7.30
2017-10-24T02:56:39.738Z,7.40
2017-10-24T02:59:08.038Z,7.40
2017-10-24T03:01:36.318Z,7.30
2017-10-24T03:04:04.723Z,7.40
2017-10-24T03:06:33.012Z,7.30
2017-10-24T03:09:01.313Z,7.40
2017-10-24T03:11:29.736Z,7.30
2017-10-24T03:13:58.035Z,7.30
2017-10-24T03:16:26.324Z,7.40
2017-10-24T03:18:55.420Z,7.50
2017-10-24T03:21:23.715Z,7.40
2017-10-24T03:23:51.996Z,7.70
2017-10-24T03:26:20.312Z,7.60
2017-10-24T03:28:48.587Z,7.50
2017-10-24T03:31:16.885Z,7.50
2017-10-24T03:33:45.227Z,7.60
2017-10-24T03:36:13.502Z,7.80
2017-10-24T03:38:42.016Z,7.70
2017-10-24T03:41:10.350Z,7.90
2017-10-24T03:43:38.636Z,7.90
2017-10-24T03:46:06.909Z,7.70
2017-10-24T03:48:35.268Z,7.70
2017-10-24T03:51:04.335Z,7.60
2017-10-24T03:53:33.440Z,7.90
2017-10-24T03:56:02.596Z,7.70
2017-10-24T03:58:30.893Z,7.70
2017-10-24T04:00:59.220Z,7.70
2017-10-24T04:03:27.619Z,7.70
2017-10-24T04:05:55.898Z,7.60
2017-10-24T04:08:24.150Z,7.60
2017-10-24T04:10:52.891Z,7.60
2017-10-24T04:13:21.190Z,7.50
2017-10-24T04:15:50.219Z,7.70
2017-10-24T04:18:18.945Z,7.60
2017-10-24T04:20:47.222Z,7.50
2017-10-24T04:23:15.712Z,7.60
2017-10-24T04:25:44.055Z,7.40
2017-10-24T04:28:12.419Z,7.30
2017-10-24T04:30:40.678Z,7.40
2017-10-24T04:33:09.352Z,7.50
2017-10-24T04:35:37.634Z,7.50
2017-10-24T04:38:05.947Z,7.40
2017-10-24T04:40:34.287Z,7.50
2017-10-24T04:43:02.593Z,7.30
2017-10-24T04:45:30.907Z,7.20
2017-10-24T04:47:59.595Z,7.30
2017-10-24T04:50:28.618Z,7.40
2017-10-24T04:52:56.906Z,7.30
2017-10-24T04:55:25.241Z,7.30
2017-10-24T04:57:53.580Z,7.50
2017-10-24T05:00:21.882Z,7.40
2017-10-24T05:02:50.216Z,7.30
2017-10-24T05:05:18.536Z,7.30
2017-10-24T05:07:46.922Z,7.40
2017-10-24T05:10:15.236Z,7.50
2017-10-24T05:12:43.505Z,7.80
2017-10-24T05:15:12.155Z,7.70
2017-10-24T05:17:41.454Z,7.80
2017-10-24T05:20:09.693Z,7.80
2017-10-24T05:22:37.978Z,7.90
2017-10-24T05:25:06.333Z,7.90
2017-10-24T05:27:34.594Z,8.00
2017-10-24T05:30:02.859Z,8.10
2017-10-24T05:32:31.196Z,7.80
2017-10-24T05:34:59.493Z,7.70
2017-10-24T05:37:27.775Z,8.00
2017-10-24T05:39:56.103Z,8.70
2017-10-24T05:42:24.391Z,8.70
2017-10-24T05:44:52.630Z,8.00
2017-10-24T05:47:21.515Z,8.30
2017-10-24T05:49:49.772Z,8.40
2017-10-24T05:52:18.784Z,8.40
2017-10-24T05:54:47.086Z,8.30
2017-10-24T05:57:15.454Z,8.10
2017-10-24T05:59:43.692Z,8.00
2017-10-24T06:02:12.762Z,8.20
2017-10-24T06:04:41.138Z,8.20
2017-10-24T06:07:09.455Z,8.20
2017-10-24T06:09:38.459Z,7.80
2017-10-24T06:12:06.806Z,7.80
2017-10-24T06:14:35.924Z,8.60
2017-10-24T06:17:04.155Z,8.50
2017-10-24T06:19:32.527Z,9.10
2017-10-24T06:22:00.802Z,9.20
2017-10-24T06:24:29.072Z,9.40
2017-10-24T06:26:57.357Z,9.10
2017-10-24T06:29:25.760Z,9.30
2017-10-24T06:31:54.795Z,9.90
2017-10-24T06:34:23.044Z,9.90
2017-10-24T06:36:51.430Z,10.00
2017-10-24T06:39:19.736Z,10.10
2017-10-24T06:41:48.072Z,10.10
2017-10-24T06:44:17.516Z,10.30
2017-10-24T06:46:45.753Z,10.30
2017-10-24T06:49:14.783Z,10.40
2017-10-24T06:51:43.095Z,10.40
2017-10-24T06:54:11.396Z,10.50
2017-10-24T06:56:39.679Z,10.50
2017-10-24T06:59:08.096Z,10.60
2017-10-24T07:01:37.237Z,10.60
2017-10-24T07:04:06.264Z,10.60
2017-10-24T07:06:34.569Z,10.60
2017-10-24T07:09:02.881Z,10.50
2017-10-24T07:11:31.930Z,10.80
2017-10-24T07:14:00.232Z,10.80
2017-10-24T07:16:28.619Z,10.70
2017-10-24T07:18:57.696Z,10.50
2017-10-24T07:21:25.943Z,10.80
2017-10-24T07:23:55.072Z,10.90
2017-10-24T07:26:23.399Z,10.90
2017-10-24T07:28:51.653Z,10.80
2017-10-24T07:31:20.763Z,11.10
2017-10-24T07:33:49.014Z,11.00
2017-10-24T07:36:17.271Z,11.10
2017-10-24T07:38:45.638Z,11.10
2017-10-24T07:41:13.916Z,11.20
2017-10-24T07:43:43.011Z,11.20
2017-10-24T07:46:11.396Z,11.20
2017-10-24T07:48:39.646Z,11.20
2017-10-24T07:51:07.907Z,11.30
2017-10-24T07:53:36.241Z,11.40
2017-10-24T07:56:04.487Z,11.40
2017-10-24T07:58:32.764Z,11.40
2017-10-24T08:01:01.097Z,11.50
2017-10-24T08:03:29.356Z,11.50
2017-10-24T08:05:58.359Z,11.50
2017-10-24T08:08:27.486Z,11.60
2017-10-24T08:10:56.507Z,11.60
2017-10-24T08:13:24.782Z,11.60
2017-10-24T08:15:53.100Z,11.70
2017-10-24T08:18:22.143Z,11.70
2017-10-24T08:20:50.405Z,11.70
2017-10-24T08:23:18.737Z,11.70
2017-10-24T08:25:47.769Z,11.80
2017-10-24T08:28:16.048Z,11.80
2017-10-24T08:30:44.377Z,11.90
2017-10-24T08:33:12.652Z,11.90
2017-10-24T08:35:40.963Z,11.80
2017-10-24T08:38:09.291Z,11.80
2017-10-24T08:40:37.545Z,11.70
2017-10-24T08:43:05.855Z,11.70
2017-10-24T08:45:34.340Z,11.80
2017-10-24T08:48:03.355Z,12.00
2017-10-24T08:50:31.622Z,12.00
2017-10-24T08:52:59.928Z,12.00
2017-10-24T08:55:28.162Z,12.10
2017-10-24T08:57:57.279Z,12.10
2017-10-24T09:00:26.351Z,12.10
2017-10-24T09:02:54.917Z,12.10
2017-10-24T09:05:23.968Z,12.10
2017-10-24T09:07:52.254Z,12.10
2017-10-24T09:14:18.103Z,12.20
2017-10-24T09:16:50.201Z,12.20
2017-10-24T09:22:33.961Z,12.30
2017-10-24T09:25:02.275Z,12.40
2017-10-24T09:27:30.590Z,12.40
2017-10-24T09:29:58.872Z,12.40
2017-10-24T09:32:31.618Z,12.40
2017-10-24T09:34:59.868Z,12.50
2017-10-24T09:37:28.888Z,12.50
2017-10-24T09:39:57.230Z,12.50
2017-10-24T09:42:26.353Z,12.60
2017-10-24T09:44:54.636Z,12.50
2017-10-24T09:47:22.952Z,12.60
2017-10-24T09:49:57.936Z,12.40
2017-10-24T09:52:26.276Z,12.40
2017-10-24T09:54:54.578Z,12.60
2017-10-24T09:57:23.635Z,12.60
2017-10-24T09:59:51.945Z,12.60
2017-10-24T10:02:20.261Z,12.70
2017-10-24T10:04:48.886Z,12.70
2017-10-24T10:07:17.200Z,12.80
2017-10-24T10:09:45.465Z,12.80
2017-10-24T10:12:13.718Z,12.80
2017-10-24T10:14:42.809Z,12.90
2017-10-24T10:17:11.054Z,12.90
2017-10-24T10:19:39.329Z,12.80
2017-10-24T10:22:12.027Z,12.80
2017-10-24T10:24:40.322Z,12.60
2017-10-24T10:27:09.375Z,12.70
2017-10-24T10:29:37.739Z,12.70
2017-10-24T10:32:06.050Z,12.60
2017-10-24T10:34:34.340Z,12.50
2017-10-24T10:37:03.415Z,12.50
2017-10-24T10:39:31.675Z,12.50
2017-10-24T10:41:59.979Z,12.70
2017-10-24T10:44:28.279Z,12.70
2017-10-24T10:46:57.323Z,12.70
2017-10-24T10:49:25.600Z,12.70
2017-10-24T10:51:53.889Z,12.60
2017-10-24T10:54:22.179Z,12.60
2017-10-24T10:56:50.505Z,12.50
2017-10-24T10:59:18.896Z,12.50
2017-10-24T11:01:47.189Z,12.00
2017-10-24T11:04:15.536Z,12.20
2017-10-24T11:06:43.885Z,12.30
2017-10-24T11:09:12.973Z,12.40
2017-10-24T11:11:42.026Z,12.70
2017-10-24T11:14:10.295Z,12.70
2017-10-24T11:16:38.525Z,12.70
2017-10-24T11:19:06.879Z,12.90
2017-10-24T11:21:35.180Z,13.00
2017-10-24T11:24:03.479Z,13.10
2017-10-24T11:26:31.849Z,13.10
2017-10-24T11:29:00.146Z,13.30
2017-10-24T11:31:28.420Z,13.30
2017-10-24T11:33:57.543Z,13.40
2017-10-24T11:36:25.832Z,13.30
2017-10-24T11:38:54.096Z,13.30
2017-10-24T11:41:22.427Z,13.40
2017-10-24T11:43:50.692Z,13.40
2017-10-24T11:46:18.949Z,13.50
2017-10-24T11:48:48.054Z,13.60
2017-10-24T11:51:17.097Z,13.60
2017-10-24T11:53:45.344Z,13.50
2017-10-24T11:56:13.636Z,13.60
2017-10-24T11:58:41.903Z,13.70
2017-10-24T12:01:10.231Z,13.70
2017-10-24T12:03:38.537Z,13.60
2017-10-24T12:06:07.567Z,13.70
2017-10-24T12:08:35.900Z,13.60
2017-10-24T12:11:04.949Z,13.70
2017-10-24T12:13:33.249Z,13.60
2017-10-24T12:16:01.597Z,13.70
2017-10-24T12:18:29.886Z,13.90
2017-10-24T12:20:58.203Z,13.80
2017-10-24T12:23:27.310Z,13.80
2017-10-24T12:25:55.559Z,13.80
2017-10-24T12:28:24.579Z,13.90
2017-10-24T12:30:52.896Z,13.90
2017-10-24T12:33:21.169Z,14.00
2017-10-24T12:35:49.468Z,13.90
2017-10-24T12:38:17.783Z,14.00
2017-10-24T12:40:46.049Z,14.00
2017-10-24T12:43:15.089Z,14.00
2017-10-24T12:45:43.430Z,14.00
2017-10-24T12:48:11.685Z,14.00
2017-10-24T12:50:46.502Z,14.00
2017-10-24T12:53:15.530Z,14.00
2017-10-24T12:55:43.831Z,14.00
2017-10-24T13:11:42.642Z,14.00
2017-10-24T13:14:11.739Z,14.00
2017-10-24T13:16:40.514Z,14.00
2017-10-24T13:19:08.793Z,14.00
2017-10-24T13:21:37.111Z,13.80
2017-10-24T13:24:05.452Z,13.90
2017-10-24T13:26:33.730Z,13.90
2017-10-24T13:29:02.142Z,14.00
2017-10-24T13:31:30.427Z,14.00
2017-10-24T13:33:58.723Z,14.00
2017-10-24T13:36:27.547Z,14.00
2017-10-24T13:38:57.014Z,14.00
2017-10-24T13:41:26.091Z,13.80
2017-10-24T13:43:54.376Z,13.80
2017-10-24T13:46:22.624Z,13.90
2017-10-24T13:48:52.164Z,13.90
2017-10-24T13:51:20.404Z,13.90
2017-10-24T13:53:49.483Z,13.80
2017-10-24T13:56:17.881Z,13.80
2017-10-24T13:58:46.231Z,13.90
2017-10-24T14:01:14.521Z,14.00
2017-10-24T14:03:44.151Z,13.90
2017-10-24T14:06:17.920Z,13.90
2017-10-24T14:08:51.708Z,13.90
2017-10-24T14:11:19.996Z,13.90
2017-10-24T14:13:48.250Z,13.80
2017-10-24T14:16:16.598Z,13.80
2017-10-24T14:18:44.911Z,13.70
2017-10-24T14:21:13.176Z,13.70
2017-10-24T14:23:41.485Z,13.90
2017-10-24T14:26:09.924Z,13.90
2017-10-24T14:28:38.200Z,13.80
2017-10-24T14:31:06.497Z,13.80
2017-10-24T14:33:35.111Z,13.80
2017-10-24T14:36:04.161Z,13.80
2017-10-24T14:38:32.414Z,13.80
2017-10-24T14:41:00.773Z,13.80
2017-10-24T14:43:29.047Z,13.80
2017-10-24T14:45:57.356Z,13.80
2017-10-24T14:48:26.900Z,13.80
2017-10-24T14:50:55.247Z,13.90
2017-10-24T14:53:23.513Z,13.80
2017-10-24T14:55:51.853Z,13.80
2017-10-24T14:58:20.119Z,13.80
2017-10-24T15:00:49.155Z,13.70
2017-10-24T15:03:17.442Z,13.70
2017-10-24T15:05:45.729Z,13.80
2017-10-24T15:08:14.001Z,13.70
2017-10-24T15:10:42.407Z,13.80
2017-10-24T15:13:11.452Z,13.80
2017-10-24T15:15:39.745Z,13.80
2017-10-24T15:18:08.156Z,13.80
2017-10-24T15:20:36.411Z,13.80
2017-10-24T15:23:04.711Z,13.80
2017-10-24T15:25:33.002Z,13.80
2017-10-24T15:28:02.014Z,13.80
2017-10-24T15:30:30.273Z,13.80
2017-10-24T15:32:58.603Z,13.80
2017-10-24T15:35:27.086Z,13.70
2017-10-24T15:37:55.327Z,13.70
2017-10-24T15:40:23.615Z,13.70
2017-10-24T15:42:51.905Z,13.80
2017-10-24T15:45:20.163Z,13.90
2017-10-24T15:47:48.475Z,13.90
2017-10-24T15:50:17.569Z,13.80
2017-10-24T15:52:46.492Z,13.80
2017-10-24T15:55:14.857Z,13.80
2017-10-24T15:57:43.920Z,13.70
2017-10-24T16:00:12.189Z,13.70
2017-10-24T16:02:40.550Z,13.80
2017-10-24T16:05:08.911Z,13.80
2017-10-24T16:07:37.200Z,13.70
2017-10-24T16:10:05.539Z,13.70
2017-10-24T16:12:34.582Z,13.80
2017-10-24T16:15:02.902Z,13.80
2017-10-24T16:17:31.989Z,13.90
2017-10-24T16:20:00.290Z,13.90
2017-10-24T16:22:29.446Z,13.80
2017-10-24T16:24:57.747Z,13.80
2017-10-24T16:27:26.784Z,14.00
2017-10-24T16:29:55.120Z,14.00
2017-10-24T16:32:24.302Z,13.90
2017-10-24T16:34:53.689Z,14.00
2017-10-24T16:37:22.945Z,13.90
2017-10-24T16:39:51.345Z,13.90
2017-10-24T16:42:19.621Z,13.90
2017-10-24T16:44:48.039Z,13.70
2017-10-24T16:47:17.315Z,14.00
2017-10-24T16:49:45.698Z,14.00
2017-10-24T16:52:13.956Z,13.90
2017-10-24T16:54:42.248Z,13.70
2017-10-24T16:57:10.589Z,13.90
2017-10-24T16:59:38.887Z,13.50
2017-10-24T17:02:07.172Z,13.30
2017-10-24T17:04:36.038Z,13.00
2017-10-24T17:07:04.299Z,13.10
2017-10-24T17:09:32.571Z,13.40
2017-10-24T17:12:03.034Z,13.30
2017-10-24T17:14:32.295Z,13.30
2017-10-24T17:17:00.577Z,13.40
2017-10-24T17:19:28.987Z,13.50
2017-10-24T17:21:57.452Z,13.40
2017-10-24T17:24:25.716Z,13.30
2017-10-24T17:26:54.379Z,13.40
2017-10-24T17:29:23.396Z,13.30
2017-10-24T17:31:51.685Z,13.30
2017-10-24T17:34:20.839Z,13.30
2017-10-24T17:36:49.901Z,13.50
2017-10-24T17:39:18.214Z,13.60
2017-10-24T17:41:47.333Z,13.60
2017-10-24T17:44:15.628Z,13.60
2017-10-24T17:46:43.991Z,13.50
2017-10-24T17:49:12.250Z,13.40
2017-10-24T17:51:41.291Z,13.40
2017-10-24T17:54:12.000Z,13.40
2017-10-24T17:56:40.277Z,13.20
2017-10-24T17:59:08.589Z,13.10
2017-10-24T18:01:38.097Z,13.10
2017-10-24T18:04:06.425Z,13.10
2017-10-24T18:06:34.698Z,13.00
2017-10-24T18:09:03.036Z,13.10
2017-10-24T18:11:32.481Z,13.00
2017-10-24T18:14:00.863Z,12.90
2017-10-24T18:16:29.262Z,12.90
2017-10-24T18:18:57.532Z,12.90
2017-10-24T18:21:25.875Z,12.90
2017-10-24T18:23:54.457Z,12.90
2017-10-24T18:26:25.049Z,12.90
2017-10-24T18:28:53.414Z,12.80
2017-10-24T18:31:21.724Z,12.80
2017-10-24T18:33:51.844Z,12.80
2017-10-24T18:36:20.212Z,12.80
2017-10-24T18:38:48.549Z,12.80
2017-10-24T18:41:16.846Z,12.60
2017-10-24T18:43:45.243Z,12.70
2017-10-24T18:46:13.619Z,12.50
2017-10-24T18:48:41.966Z,12.50
2017-10-24T18:51:10.277Z,12.50
2017-10-24T18:53:38.656Z,12.40
2017-10-24T18:56:06.969Z,12.40
2017-10-24T18:58:35.240Z,12.50
2017-10-24T19:01:03.964Z,12.50
2017-10-24T19:03:32.216Z,12.40
2017-10-24T19:06:00.546Z,12.40
2017-10-24T19:08:29.641Z,12.40
2017-10-24T19:10:57.915Z,12.40
2017-10-24T19:13:26.941Z,12.40
2017-10-24T19:15:55.612Z,12.40
2017-10-24T19:18:24.628Z,12.30
2017-10-24T19:20:52.940Z,12.30
2017-10-24T19:23:21.265Z,12.40
2017-10-24T19:25:50.302Z,12.30
2017-10-24T19:28:18.619Z,12.30
2017-10-24T19:30:47.748Z,12.30
2017-10-24T19:33:16.001Z,12.30
2017-10-24T19:35:44.315Z,12.40
2017-10-24T19:38:14.428Z,12.30
2017-10-24T19:40:42.715Z,12.20
2017-10-24T19:43:11.024Z,12.30
2017-10-24T19:45:40.086Z,12.20
2017-10-24T19:48:08.535Z,12.20
2017-10-24T19:50:39.198Z,12.30
2017-10-24T19:53:07.644Z,12.20
2017-10-24T19:55:36.873Z,12.30
2017-10-24T19:58:05.368Z,12.30
2017-10-24T20:00:33.968Z,12.30
2017-10-24T20:03:02.501Z,12.20
2017-10-24T20:05:31.149Z,12.20
2017-10-24T20:07:59.686Z,12.20
2017-10-24T20:10:28.178Z,12.20
2017-10-24T20:12:56.608Z,12.20
2017-10-24T20:15:25.661Z,12.10
2017-10-24T20:17:54.072Z,12.10
2017-10-24T20:20:22.506Z,12.00
2017-10-24T20:22:50.932Z,12.10
2017-10-24T20:25:19.986Z,12.10
2017-10-24T20:27:48.303Z,12.10
2017-10-24T20:30:17.436Z,12.10
2017-10-24T20:32:45.767Z,12.10
2017-10-24T20:35:14.134Z,12.00
2017-10-24T20:37:43.672Z,12.00
2017-10-24T20:40:12.726Z,11.90
2017-10-24T20:42:41.171Z,11.90
2017-10-24T20:45:09.629Z,11.80
2017-10-24T20:47:37.983Z,11.90
2017-10-24T20:50:07.057Z,12.00
2017-10-24T20:52:36.367Z,12.00
2017-10-24T20:55:04.652Z,12.00
2017-10-24T20:57:32.947Z,11.80
2017-10-24T21:00:01.305Z,11.70
2017-10-24T21:02:29.625Z,11.80
2017-10-24T21:04:58.000Z,11.70
2017-10-24T21:07:26.261Z,11.80
2017-10-24T21:09:54.623Z,11.90
2017-10-24T21:12:23.776Z,11.80
2017-10-24T21:14:52.321Z,11.80
2017-10-24T21:17:20.715Z,11.80
2017-10-24T21:19:49.067Z,11.80
2017-10-24T21:22:17.461Z,11.70
2017-10-24T21:24:45.779Z,11.60
2017-10-24T21:27:14.235Z,11.70
2017-10-24T21:29:42.567Z,11.70
2017-10-24T21:32:13.813Z,11.80
2017-10-24T21:34:42.836Z,11.80
2017-10-24T21:37:11.866Z,11.80
2017-10-24T21:39:40.245Z,11.80
2017-10-24T21:42:08.506Z,11.70
2017-10-24T21:44:36.808Z,11.70
2017-10-24T21:47:05.176Z,11.70
2017-10-24T21:49:33.454Z,11.80
2017-10-24T21:52:01.723Z,11.80
2017-10-24T21:54:30.096Z,11.70
2017-10-24T21:56:58.349Z,11.70
2017-10-24T21:59:27.419Z,11.50
2017-10-24T22:01:56.577Z,11.50
2017-10-24T22:04:24.857Z,11.50
2017-10-24T22:06:53.189Z,11.60
2017-10-24T22:09:21.524Z,11.50
2017-10-24T22:11:50.660Z,11.50
2017-10-24T22:14:18.951Z,11.50
2017-10-24T22:16:47.274Z,11.50
2017-10-24T22:19:15.601Z,11.60
2017-10-24T22:21:43.920Z,11.60
2017-10-24T22:24:12.969Z,11.60
2017-10-24T22:26:42.174Z,11.60
2017-10-24T22:29:10.461Z,11.60
2017-10-24T22:31:38.771Z,11.40
2017-10-24T22:34:07.940Z,11.50
2017-10-24T22:36:36.224Z,11.50
2017-10-24T22:39:05.290Z,11.60
2017-10-24T22:41:33.693Z,11.60
2017-10-24T22:44:02.000Z,11.60
2017-10-24T22:46:31.064Z,11.70
2017-10-24T22:48:59.411Z,11.70
2017-10-24T22:51:27.707Z,11.40
2017-10-24T22:53:56.012Z,11.60
2017-10-24T22:56:24.375Z,11.50
2017-10-24T22:58:53.478Z,11.30
2017-10-24T23:01:21.732Z,11.20
2017-10-24T23:03:50.054Z,11.30
2017-10-24T23:06:19.108Z,11.50
2017-10-24T23:08:47.361Z,11.50
2017-10-24T23:11:15.710Z,11.40
2017-10-24T23:13:44.731Z,11.30
2017-10-24T23:16:12.998Z,11.30
2017-10-24T23:18:41.323Z,11.40
2017-10-24T23:21:09.588Z,11.50
2017-10-24T23:23:37.878Z,11.50
2017-10-24T23:26:06.239Z,11.20
2017-10-24T23:28:34.506Z,11.30
2017-10-24T23:31:02.866Z,11.40
2017-10-24T23:33:31.261Z,11.60
2017-10-24T23:35:59.552Z,11.50
2017-10-24T23:38:28.644Z,11.50
2017-10-24T23:40:57.009Z,11.40
2017-10-24T23:43:25.333Z,11.30
2017-10-24T23:45:54.342Z,11.40
2017-10-24T23:48:22.669Z,11.40
2017-10-24T23:50:50.927Z,11.20
2017-10-24T23:53:19.174Z,11.30
2017-10-24T23:55:47.915Z,11.10
2017-10-24T23:58:16.188Z,11.40
